KCRX/CRX METAR and TAF weather

Enter ICAO airport designator
Station Type Date Time Source
KCRX METAR 2019/04/19 22:35 UTC NOAA

KCRX 192235Z AUTO 29016G22KT 4SM -RA FEW012 BKN018 BKN026 08/06 A2971 RMK AO2


Station Type Date Time Source
KCRX Decoded METAR 2019/04/19 22:35 UTC NOAA

Station name not available
Apr 19, 2019 - 06:35 PM EDT / 2019.04.19 2235 UTC
Wind: from the WNW (290 degrees) at 18 MPH (16 KT) gusting to 25 MPH (22 KT):0
Visibility: 4 mile(s):0
Sky conditions: mostly cloudy
Weather: light rain
Temperature: 46 F (8 C)
Dew Point: 42 F (6 C)
Relative Humidity: 87%
Pressure (altimeter): 29.71 in. Hg (1006 hPa)
ob: KCRX 192235Z AUTO 29016G22KT 4SM -RA FEW012 BKN018 BKN026 08/06 A2971 RMK AO2
cycle: 22

Station Type Date Time Source
KCRX TAF UTC NOAA

Error!

Example: see airport list